createdAt,value
2023-03-25T00:01:39.207Z,99072.20
2023-03-25T00:04:07.624Z,99070.70
2023-03-25T00:06:36.113Z,99068.19
2023-03-25T00:09:04.816Z,99070.31
2023-03-25T00:12:01.387Z,99066.95
2023-03-25T00:14:34.141Z,99067.62
2023-03-25T00:17:03.273Z,99064.39
2023-03-25T00:19:32.513Z,99056.61
2023-03-25T00:22:03.034Z,99051.82
2023-03-25T00:24:31.482Z,99045.48
2023-03-25T00:27:00.133Z,99046.58
2023-03-25T00:29:29.293Z,99045.76
2023-03-25T00:31:57.809Z,99040.59
2023-03-25T00:34:26.647Z,99035.56
2023-03-25T00:36:57.068Z,99037.06
2023-03-25T00:39:28.720Z,99034.03
2023-03-25T00:41:57.614Z,99035.95
2023-03-25T00:44:30.129Z,99034.83
2023-03-25T00:47:00.321Z,99030.62
2023-03-25T00:49:32.773Z,99028.83
2023-03-25T00:52:02.174Z,99021.88
2023-03-25T00:54:34.623Z,99020.20
2023-03-25T00:57:03.571Z,99024.35
2023-03-25T00:59:32.518Z,99025.97
2023-03-25T01:02:06.682Z,99022.79
2023-03-25T01:04:41.465Z,99017.58
2023-03-25T01:07:11.555Z,99014.16
2023-03-25T01:09:43.649Z,99014.30
2023-03-25T01:12:40.357Z,99011.05
2023-03-25T01:15:11.427Z,99012.14
2023-03-25T01:17:40.305Z,99019.31
2023-03-25T01:20:12.366Z,99024.85
2023-03-25T01:22:43.748Z,99027.30
2023-03-25T01:25:15.696Z,99026.50
2023-03-25T01:27:44.661Z,99027.87
2023-03-25T01:30:14.563Z,99024.60
2023-03-25T01:32:43.509Z,99017.79
2023-03-25T01:35:17.362Z,99017.39
2023-03-25T01:37:50.526Z,99014.52
2023-03-25T01:40:24.301Z,99016.80
2023-03-25T01:42:55.436Z,99016.38
2023-03-25T01:45:31.122Z,99017.02
2023-03-25T01:48:10.812Z,99016.72
2023-03-25T01:50:44.299Z,99018.51
2023-03-25T01:53:13.788Z,99012.45
2023-03-25T01:55:48.157Z,99004.72
2023-03-25T01:58:24.940Z,99003.13
2023-03-25T02:00:56.349Z,99002.58
2023-03-25T02:03:26.504Z,99007.41
2023-03-25T02:06:32.500Z,99007.92
2023-03-25T02:09:09.400Z,98999.54
2023-03-25T02:11:40.826Z,99002.73
2023-03-25T02:14:15.456Z,98998.98
2023-03-25T02:17:05.279Z,98998.14
2023-03-25T02:20:14.257Z,98996.80
2023-03-25T02:23:22.326Z,98991.19
2023-03-25T02:26:27.862Z,98990.42
2023-03-25T02:29:05.884Z,98980.73
2023-03-25T02:32:25.393Z,98974.07
2023-03-25T02:35:30.739Z,98963.96
2023-03-25T02:38:20.212Z,98959.50
2023-03-25T02:41:05.320Z,98963.80
2023-03-25T02:43:51.112Z,98968.73
2023-03-25T02:46:23.920Z,98969.66
2023-03-25T02:49:19.944Z,98967.24
2023-03-25T02:51:55.081Z,98971.14
2023-03-25T02:54:26.255Z,98974.90
2023-03-25T02:56:57.912Z,98974.16
2023-03-25T02:59:33.543Z,98973.52
2023-03-25T03:02:11.984Z,98965.66
2023-03-25T03:04:53.515Z,98968.37
2023-03-25T03:07:33.794Z,98966.02
2023-03-25T03:10:19.813Z,98967.77
2023-03-25T03:12:59.968Z,98962.17
2023-03-25T03:15:42.907Z,98969.42
2023-03-25T03:18:27.637Z,98966.98
2023-03-25T03:21:14.464Z,98967.81
2023-03-25T03:24:06.645Z,98965.40
2023-03-25T03:26:53.669Z,98965.46
2023-03-25T03:29:32.141Z,98972.64
2023-03-25T03:32:17.051Z,98967.93
2023-03-25T03:34:59.294Z,98967.45
2023-03-25T03:37:37.734Z,98968.76
2023-03-25T03:40:10.814Z,98965.62
2023-03-25T03:42:47.344Z,98972.74
2023-03-25T03:45:29.963Z,98973.50
2023-03-25T03:48:02.974Z,98980.77
2023-03-25T03:50:40.048Z,98982.00
2023-03-25T03:53:31.267Z,98983.95
2023-03-25T03:56:06.474Z,98987.13
2023-03-25T03:58:59.866Z,98997.43
2023-03-25T04:01:54.967Z,98995.34
2023-03-25T04:04:28.603Z,98991.36
2023-03-25T04:07:15.101Z,98989.96
2023-03-25T04:09:56.936Z,98990.98
2023-03-25T04:12:42.014Z,98994.00
2023-03-25T04:15:12.507Z,98998.58
2023-03-25T04:17:41.455Z,99003.81
2023-03-25T04:20:24.212Z,99005.55
2023-03-25T04:22:54.050Z,99010.05
2023-03-25T04:25:25.506Z,99012.23
2023-03-25T04:27:59.235Z,99011.95
2023-03-25T04:30:31.438Z,99016.13
2023-03-25T04:33:00.964Z,99017.48
2023-03-25T04:35:33.331Z,99018.14
2023-03-25T04:38:02.304Z,99014.31
2023-03-25T04:40:33.816Z,99004.31
2023-03-25T04:43:02.665Z,99001.96
2023-03-25T04:45:36.907Z,98998.81
2023-03-25T04:48:20.288Z,98995.74
2023-03-25T04:50:49.274Z,98988.33
2023-03-25T04:53:19.688Z,98990.66
2023-03-25T04:55:50.229Z,98989.90
2023-03-25T04:58:18.908Z,98988.48
2023-03-25T05:00:51.308Z,98988.74
2023-03-25T05:03:24.881Z,98988.36
2023-03-25T05:05:54.249Z,98988.94
2023-03-25T05:08:22.987Z,98989.96
2023-03-25T05:10:52.889Z,98998.93
2023-03-25T05:14:03.348Z,98998.34
2023-03-25T05:16:33.666Z,98992.96
2023-03-25T05:19:04.198Z,98985.77
2023-03-25T05:21:38.727Z,98985.04
2023-03-25T05:24:10.696Z,98978.95
2023-03-25T05:26:43.632Z,98979.19
2023-03-25T05:29:15.036Z,98976.05
2023-03-25T05:31:47.335Z,98976.83
2023-03-25T05:34:22.408Z,98973.19
2023-03-25T05:36:51.436Z,98969.73
2023-03-25T05:39:20.885Z,98961.14
2023-03-25T05:41:52.841Z,98964.14
2023-03-25T05:44:26.039Z,98965.13
2023-03-25T05:46:55.102Z,98966.13
2023-03-25T05:49:27.203Z,98968.72
2023-03-25T05:51:56.459Z,98970.52
2023-03-25T05:54:25.785Z,98964.19
2023-03-25T05:56:54.426Z,98957.69
2023-03-25T05:59:23.288Z,98953.17
2023-03-25T06:01:52.339Z,98951.55
2023-03-25T06:04:22.127Z,98958.02
2023-03-25T06:06:52.177Z,98964.03
2023-03-25T06:09:21.828Z,98967.37
2023-03-25T06:12:52.749Z,98963.59
2023-03-25T06:15:34.076Z,98967.92
2023-03-25T06:18:03.251Z,98965.63
2023-03-25T06:20:33.891Z,98970.38
2023-03-25T06:23:10.325Z,98961.05
2023-03-25T06:25:40.280Z,98962.60
2023-03-25T06:28:09.149Z,98962.24
2023-03-25T06:30:38.747Z,98960.44
2023-03-25T06:33:07.052Z,98953.30
2023-03-25T06:35:36.964Z,98954.76
2023-03-25T06:38:05.876Z,98954.14
2023-03-25T06:40:35.419Z,98950.20
2023-03-25T06:43:07.487Z,98950.67
2023-03-25T06:45:36.472Z,98954.73
2023-03-25T06:48:06.080Z,98951.27
2023-03-25T06:50:34.827Z,98951.85
2023-03-25T06:53:03.932Z,98948.11
2023-03-25T06:55:32.684Z,98944.56
2023-03-25T06:58:16.959Z,98945.35
2023-03-25T07:00:55.263Z,98941.09
2023-03-25T07:03:25.161Z,98945.09
2023-03-25T07:05:54.093Z,98946.19
2023-03-25T07:08:22.774Z,98944.67
2023-03-25T07:10:51.243Z,98941.34
2023-03-25T07:13:21.071Z,98946.31
2023-03-25T07:15:49.993Z,98949.68
2023-03-25T07:18:19.174Z,98947.80
2023-03-25T07:20:49.108Z,98941.65
2023-03-25T07:23:17.525Z,98939.93
2023-03-25T07:25:47.332Z,98937.02
2023-03-25T07:28:16.760Z,98935.66
2023-03-25T07:30:45.562Z,98935.13
2023-03-25T07:33:14.146Z,98934.13
2023-03-25T07:35:43.251Z,98933.30
2023-03-25T07:38:12.150Z,98923.27
2023-03-25T07:40:40.777Z,98924.20
2023-03-25T07:43:09.639Z,98922.90
2023-03-25T07:45:55.930Z,98921.44
2023-03-25T07:48:25.009Z,98917.75
2023-03-25T07:50:54.151Z,98915.86
2023-03-25T07:53:23.718Z,98912.26
2023-03-25T07:55:52.518Z,98904.18
2023-03-25T07:58:21.428Z,98903.29
2023-03-25T08:00:50.781Z,98901.24
2023-03-25T08:03:19.374Z,98890.20
2023-03-25T08:05:49.165Z,98882.69
2023-03-25T08:08:17.820Z,98875.00
2023-03-25T08:10:48.439Z,98865.52
2023-03-25T08:13:16.959Z,98857.31
2023-03-25T08:15:46.051Z,98849.77
2023-03-25T08:18:15.961Z,98840.98
2023-03-25T08:20:44.400Z,98827.69
2023-03-25T08:23:20.288Z,98819.73
2023-03-25T08:25:51.566Z,98821.08
2023-03-25T08:28:23.648Z,98820.41
2023-03-25T08:30:56.183Z,98818.24
2023-03-25T08:33:27.833Z,98814.31
2023-03-25T08:35:58.183Z,98817.00
2023-03-25T08:38:34.288Z,98806.13
2023-03-25T08:41:03.831Z,98796.11
2023-03-25T08:43:32.912Z,98783.01
2023-03-25T08:46:01.452Z,98777.60
2023-03-25T08:48:31.228Z,98774.05
2023-03-25T08:51:00.014Z,98771.70
2023-03-25T08:53:28.524Z,98765.09
2023-03-25T08:55:59.264Z,98749.79
2023-03-25T08:58:28.534Z,98727.17
2023-03-25T09:00:58.309Z,98710.48
2023-03-25T09:03:27.661Z,98704.77
2023-03-25T09:05:57.243Z,98706.67
2023-03-25T09:08:25.783Z,98701.59
2023-03-25T09:10:56.756Z,98690.21
2023-03-25T09:13:25.860Z,98673.84
2023-03-25T09:15:54.663Z,98655.71
2023-03-25T09:18:23.847Z,98619.59
2023-03-25T09:20:58.454Z,98560.12
2023-03-25T09:23:27.692Z,98399.02
2023-03-25T09:26:02.134Z,97987.83
2023-03-25T09:28:31.580Z,97994.02
2023-03-25T09:31:00.087Z,97980.91
2023-03-25T09:33:29.071Z,97977.00
2023-03-25T09:35:57.634Z,97985.13
2023-03-25T09:38:26.634Z,98009.91
2023-03-25T09:40:55.719Z,97959.70
2023-03-25T09:43:46.583Z,97920.97
2023-03-25T09:46:15.389Z,97922.61
2023-03-25T09:48:47.469Z,97921.91
2023-03-25T09:51:34.033Z,97957.28
2023-03-25T09:54:15.244Z,97999.05
2023-03-25T09:56:45.017Z,98044.81
2023-03-25T09:59:33.567Z,98088.27
2023-03-25T10:02:08.108Z,98117.23
2023-03-25T10:05:04.770Z,98145.62
2023-03-25T10:07:33.286Z,98151.88
2023-03-25T10:10:18.986Z,98107.25
2023-03-25T10:12:53.606Z,98069.54
2023-03-25T10:16:27.543Z,97994.23
2023-03-25T10:19:11.771Z,97918.64
2023-03-25T10:30:47.228Z,98053.36
2023-03-25T10:41:04.501Z,98132.22
2023-03-25T10:46:28.014Z,98123.52
2023-03-25T10:48:55.541Z,98106.13
2023-03-25T10:54:20.635Z,98104.61
2023-03-25T10:56:55.864Z,98114.95
2023-03-25T10:59:32.683Z,98124.96
2023-03-25T11:02:12.694Z,98120.73
2023-03-25T11:04:45.207Z,98120.21
2023-03-25T11:07:33.240Z,98125.11
2023-03-25T11:10:14.959Z,98145.71
2023-03-25T11:12:48.504Z,98156.35
2023-03-25T11:15:35.199Z,98168.11
2023-03-25T11:18:13.454Z,98168.08
2023-03-25T11:21:04.909Z,98173.70
2023-03-25T11:23:36.828Z,98178.89
2023-03-25T11:26:24.551Z,98192.90
2023-03-25T11:29:02.913Z,98203.63
2023-03-25T11:31:37.164Z,98213.95
2023-03-25T11:34:20.908Z,98230.54
2023-03-25T11:36:57.786Z,98239.09
2023-03-25T11:39:33.192Z,98249.96
2023-03-25T11:42:17.619Z,98252.20
2023-03-25T11:44:54.220Z,98258.23
2023-03-25T11:47:27.480Z,98261.19
2023-03-25T11:49:56.183Z,98270.70
2023-03-25T11:52:29.270Z,98291.89
2023-03-25T11:54:57.991Z,98312.61
2023-03-25T11:57:32.790Z,98321.07
2023-03-25T12:00:12.743Z,98333.18
2023-03-25T12:02:41.887Z,98343.86
2023-03-25T12:05:14.764Z,98341.36
2023-03-25T12:07:45.907Z,98348.73
2023-03-25T12:10:34.775Z,98343.05
2023-03-25T12:13:17.369Z,98338.64
2023-03-25T12:15:46.026Z,98335.83
2023-03-25T12:18:44.059Z,98327.24
2023-03-25T12:21:57.785Z,98322.89
2023-03-25T12:24:44.275Z,98314.33
2023-03-25T12:27:44.573Z,98297.80
2023-03-25T12:30:21.998Z,98264.50
2023-03-25T12:32:59.816Z,98246.32
2023-03-25T12:35:57.541Z,98218.73
2023-03-25T12:39:00.648Z,98215.92
2023-03-25T12:41:34.305Z,98215.20
2023-03-25T12:44:11.417Z,98204.66
2023-03-25T12:47:09.561Z,98175.55
2023-03-25T12:50:01.552Z,98135.81
2023-03-25T12:52:43.485Z,98133.14
2023-03-25T12:55:53.895Z,98139.48
2023-03-25T12:59:08.605Z,98153.83
2023-03-25T13:02:14.687Z,98162.33
2023-03-25T13:04:49.449Z,98164.60
2023-03-25T13:07:27.798Z,98168.54
2023-03-25T13:10:31.593Z,98165.07
2023-03-25T13:13:03.614Z,98167.36
2023-03-25T13:16:08.297Z,98167.34
2023-03-25T13:18:54.250Z,98169.65
2023-03-25T13:21:29.340Z,98174.09
2023-03-25T13:24:08.295Z,98183.09
2023-03-25T13:26:40.431Z,98186.13
2023-03-25T13:29:29.497Z,98185.08
2023-03-25T13:32:03.596Z,98172.80
2023-03-25T13:34:44.333Z,98169.16
2023-03-25T13:37:36.229Z,98159.42
2023-03-25T13:40:33.864Z,98155.50
2023-03-25T13:43:33.732Z,98147.14
2023-03-25T13:46:16.975Z,98142.23
2023-03-25T13:49:36.629Z,98147.27
2023-03-25T13:52:09.746Z,98148.96
2023-03-25T13:54:52.665Z,98163.36
2023-03-25T13:57:42.908Z,98202.59
2023-03-25T14:01:08.175Z,98246.88
2023-03-25T14:03:59.218Z,98272.18
2023-03-25T14:07:18.529Z,98301.02
2023-03-25T14:11:10.357Z,98295.68
2023-03-25T14:14:23.423Z,98304.35
2023-03-25T14:17:19.146Z,98302.02
2023-03-25T14:19:55.680Z,98293.08
2023-03-25T14:22:29.467Z,98282.61
2023-03-25T14:24:59.247Z,98273.43
2023-03-25T14:27:35.708Z,98253.47
2023-03-25T14:30:29.066Z,98235.31
2023-03-25T14:33:04.423Z,98230.17
2023-03-25T14:35:34.164Z,98222.39
2023-03-25T14:38:07.243Z,98221.71
2023-03-25T14:40:50.734Z,98223.27
2023-03-25T14:43:47.569Z,98220.95
2023-03-25T14:46:24.915Z,98231.67
2023-03-25T14:49:22.894Z,98238.79
2023-03-25T14:51:58.689Z,98252.30
2023-03-25T14:54:37.069Z,98246.98
2023-03-25T14:57:40.380Z,98242.06
2023-03-25T15:00:31.739Z,98248.61
2023-03-25T15:03:18.092Z,98252.32
2023-03-25T15:06:00.726Z,98257.86
2023-03-25T15:08:45.563Z,98258.36
2023-03-25T15:11:17.266Z,98253.05
2023-03-25T15:14:13.837Z,98249.23
2023-03-25T15:17:15.271Z,98245.73
2023-03-25T15:19:59.927Z,98238.55
2023-03-25T15:22:29.548Z,98229.41
2023-03-25T15:25:19.696Z,98228.27
2023-03-25T15:34:46.172Z,98219.37
2023-03-25T15:37:45.496Z,98218.18
2023-03-25T15:40:29.247Z,98212.55
2023-03-25T15:43:02.415Z,98206.95
2023-03-25T15:45:50.136Z,98204.48
2023-03-25T15:48:24.549Z,98193.98
2023-03-25T15:51:16.181Z,98186.41
2023-03-25T15:54:32.883Z,98182.85
2023-03-25T15:57:30.372Z,98180.73
2023-03-25T16:00:21.070Z,98177.77
2023-03-25T16:02:59.400Z,98179.39
2023-03-25T16:05:31.367Z,98176.96
2023-03-25T16:08:07.860Z,98179.86
2023-03-25T16:10:37.753Z,98179.98
2023-03-25T16:14:22.263Z,98184.42
2023-03-25T16:16:59.047Z,98191.05
2023-03-25T16:19:40.260Z,98200.45
2023-03-25T16:22:22.238Z,98205.41
2023-03-25T16:24:51.802Z,98206.77
2023-03-25T16:27:34.303Z,98205.00
2023-03-25T16:30:18.957Z,98211.14
2023-03-25T16:32:47.555Z,98212.83
2023-03-25T16:35:25.582Z,98210.87
2023-03-25T16:37:58.804Z,98221.64
2023-03-25T16:40:44.021Z,98229.39
2023-03-25T16:43:24.018Z,98226.98
2023-03-25T16:46:04.760Z,98229.58
2023-03-25T16:48:37.255Z,98234.40
2023-03-25T16:51:20.764Z,98235.98
2023-03-25T16:54:00.175Z,98239.11
2023-03-25T16:56:34.775Z,98244.77
2023-03-25T16:59:08.469Z,98253.13
2023-03-25T17:01:43.179Z,98258.00
2023-03-25T17:04:27.089Z,98259.58
2023-03-25T17:07:01.724Z,98259.80
2023-03-25T17:09:40.599Z,98263.23
2023-03-25T17:12:19.972Z,98261.27
2023-03-25T17:14:51.276Z,98263.35
2023-03-25T17:17:23.573Z,98266.34
2023-03-25T17:19:53.863Z,98266.00
2023-03-25T17:22:32.738Z,98270.08
2023-03-25T17:25:37.263Z,98274.09
2023-03-25T17:28:32.848Z,98277.33
2023-03-25T17:31:20.470Z,98281.02
2023-03-25T17:33:52.914Z,98291.21
2023-03-25T17:36:22.392Z,98292.32
2023-03-25T17:38:54.446Z,98295.36
2023-03-25T17:41:36.682Z,98298.46
2023-03-25T17:44:10.211Z,98300.52
2023-03-25T17:46:39.895Z,98298.02
2023-03-25T17:49:20.383Z,98302.70
2023-03-25T17:51:51.530Z,98304.20
2023-03-25T17:54:21.009Z,98303.38
2023-03-25T17:56:52.333Z,98306.42
2023-03-25T17:59:25.788Z,98301.36
2023-03-25T18:01:55.414Z,98302.59
2023-03-25T18:04:26.094Z,98301.89
2023-03-25T18:06:55.997Z,98305.16
2023-03-25T18:09:27.841Z,98307.27
2023-03-25T18:12:19.628Z,98305.79
2023-03-25T18:14:51.107Z,98309.09
2023-03-25T18:17:20.310Z,98313.59
2023-03-25T18:19:49.906Z,98312.31
2023-03-25T18:22:20.439Z,98315.99
2023-03-25T18:24:53.467Z,98318.50
2023-03-25T18:27:33.531Z,98317.08
2023-03-25T18:30:42.795Z,98320.23
2023-03-25T18:33:17.385Z,98319.87
2023-03-25T18:35:48.767Z,98320.29
2023-03-25T18:38:25.160Z,98322.34
2023-03-25T18:40:57.729Z,98320.00
2023-03-25T18:43:31.269Z,98322.42
2023-03-25T18:46:16.491Z,98327.18
2023-03-25T18:48:49.053Z,98331.98
2023-03-25T18:51:18.870Z,98329.45
2023-03-25T18:53:51.296Z,98332.76
2023-03-25T18:56:21.820Z,98334.67
2023-03-25T18:58:54.201Z,98329.70
2023-03-25T19:01:24.755Z,98329.13
2023-03-25T19:03:54.170Z,98331.33
2023-03-25T19:06:25.000Z,98328.29
2023-03-25T19:08:54.909Z,98325.20
2023-03-25T19:11:31.064Z,98325.34
2023-03-25T19:14:01.288Z,98329.83
2023-03-25T19:16:31.630Z,98340.63
2023-03-25T19:19:04.089Z,98359.83
2023-03-25T19:21:38.869Z,98392.19
2023-03-25T19:24:09.531Z,98400.89
2023-03-25T19:26:48.778Z,98399.82
2023-03-25T19:29:20.490Z,98400.79
2023-03-25T19:32:25.479Z,98392.67
2023-03-25T19:35:05.226Z,98384.45
2023-03-25T19:37:58.456Z,98381.42
2023-03-25T19:40:37.131Z,98378.83
2023-03-25T19:43:14.298Z,98375.27
2023-03-25T19:45:48.254Z,98371.11
2023-03-25T19:48:19.505Z,98361.09
2023-03-25T19:50:49.838Z,98356.98
2023-03-25T19:53:21.720Z,98348.65
2023-03-25T19:55:55.240Z,98349.48
2023-03-25T19:58:26.589Z,98346.11
2023-03-25T20:00:58.346Z,98347.77
2023-03-25T20:03:31.697Z,98353.04
2023-03-25T20:06:07.360Z,98361.61
2023-03-25T20:08:40.089Z,98364.98
2023-03-25T20:11:14.186Z,98365.91
2023-03-25T20:13:50.657Z,98369.39
2023-03-25T20:16:25.014Z,98376.58
2023-03-25T20:18:56.665Z,98380.78
2023-03-25T20:21:29.616Z,98379.33
2023-03-25T20:24:01.794Z,98382.10
2023-03-25T20:26:31.840Z,98379.53
2023-03-25T20:29:05.105Z,98376.52
2023-03-25T20:31:36.915Z,98383.07
2023-03-25T20:34:08.481Z,98382.46
2023-03-25T20:36:39.474Z,98378.27
2023-03-25T20:39:12.092Z,98377.30
2023-03-25T20:41:50.196Z,98384.98
2023-03-25T20:44:22.320Z,98386.08
2023-03-25T20:47:00.326Z,98381.92
2023-03-25T20:49:41.752Z,98381.95
2023-03-25T20:52:13.283Z,98386.37
2023-03-25T20:55:10.276Z,98382.95
2023-03-25T20:57:43.279Z,98384.21
2023-03-25T21:00:27.405Z,98384.97
2023-03-25T21:03:02.139Z,98380.04
2023-03-25T21:05:55.642Z,98380.17
2023-03-25T21:13:18.673Z,98374.90
2023-03-25T21:16:17.649Z,98369.68
2023-03-25T21:25:56.216Z,98361.74
2023-03-25T21:35:17.896Z,98355.55
2023-03-25T22:12:51.771Z,98321.33
2023-03-25T22:16:03.620Z,98315.92
2023-03-25T22:25:46.891Z,98315.38
2023-03-25T22:32:45.485Z,98304.95
2023-03-25T22:35:48.653Z,98297.98
2023-03-25T22:39:14.845Z,98299.73
2023-03-25T22:42:25.859Z,98296.83
2023-03-25T22:46:18.506Z,98288.03
2023-03-25T22:49:59.856Z,98289.59
2023-03-25T22:56:26.834Z,98285.92
2023-03-25T23:00:03.744Z,98289.60
2023-03-25T23:13:30.266Z,98289.70
2023-03-25T23:23:58.350Z,98284.91
2023-03-25T23:26:54.581Z,98280.36
2023-03-25T23:30:39.448Z,98279.44
2023-03-25T23:33:54.149Z,98276.81
2023-03-25T23:36:48.854Z,98276.23
2023-03-25T23:40:18.767Z,98271.91
2023-03-25T23:44:07.726Z,98273.02
2023-03-25T23:48:11.968Z,98272.77
2023-03-25T23:51:28.975Z,98279.98
2023-03-25T23:54:51.656Z,98279.52
2023-03-25T23:57:20.986Z,98284.63
